createdAt,value
2022-09-04T00:02:37.419Z,19.60
2022-09-04T00:05:37.952Z,19.60
2022-09-04T00:08:30.034Z,19.50
2022-09-04T00:11:34.287Z,19.50
2022-09-04T00:14:10.670Z,19.50
2022-09-04T00:17:06.077Z,19.50
2022-09-04T00:19:49.898Z,19.50
2022-09-04T00:22:53.779Z,19.40
2022-09-04T00:25:38.597Z,19.50
2022-09-04T00:28:19.600Z,19.40
2022-09-04T00:31:04.363Z,19.40
2022-09-04T00:33:45.937Z,19.40
2022-09-04T00:36:17.218Z,19.40
2022-09-04T00:39:15.108Z,19.40
2022-09-04T00:42:21.868Z,19.40
2022-09-04T00:45:46.420Z,19.40
2022-09-04T00:48:39.734Z,19.40
2022-09-04T00:51:17.116Z,19.40
2022-09-04T00:53:55.880Z,19.40
2022-09-04T00:56:35.176Z,19.40
2022-09-04T00:59:43.995Z,19.40
2022-09-04T01:02:59.890Z,19.30
2022-09-04T01:05:45.478Z,19.30
2022-09-04T01:08:56.475Z,19.30
2022-09-04T01:12:10.869Z,19.30
2022-09-04T01:15:37.659Z,19.30
2022-09-04T01:18:25.831Z,19.30
2022-09-04T01:21:34.650Z,19.30
2022-09-04T01:24:28.421Z,19.30
2022-09-04T01:27:29.353Z,19.30
2022-09-04T01:30:05.933Z,19.20
2022-09-04T01:33:01.947Z,19.20
2022-09-04T01:35:45.040Z,19.20
2022-09-04T01:38:49.036Z,19.20
2022-09-04T01:41:56.910Z,19.30
2022-09-04T01:44:23.767Z,19.30
2022-09-04T01:47:21.386Z,19.50
2022-09-04T01:50:04.133Z,19.20
2022-09-04T01:52:40.566Z,19.20
2022-09-04T01:55:24.168Z,19.20
2022-09-04T01:58:27.560Z,19.10
2022-09-04T02:01:22.083Z,19.10
2022-09-04T02:04:08.097Z,19.00
2022-09-04T02:06:59.490Z,19.00
2022-09-04T02:09:47.306Z,19.00
2022-09-04T02:12:42.574Z,19.00
2022-09-04T02:15:15.840Z,19.00
2022-09-04T02:18:19.834Z,19.00
2022-09-04T02:21:27.445Z,19.00
2022-09-04T02:24:34.922Z,19.00
2022-09-04T02:27:11.089Z,19.00
2022-09-04T02:30:01.364Z,19.00
2022-09-04T02:33:15.137Z,19.00
2022-09-04T02:36:08.052Z,19.00
2022-09-04T02:39:28.111Z,19.00
2022-09-04T02:42:32.163Z,19.00
2022-09-04T02:45:46.545Z,18.90
2022-09-04T02:48:52.187Z,19.00
2022-09-04T02:51:54.467Z,19.00
2022-09-04T02:54:56.241Z,19.00
2022-09-04T02:57:55.097Z,19.00
2022-09-04T03:00:46.419Z,19.00
2022-09-04T03:03:29.970Z,18.90
2022-09-04T03:06:07.081Z,18.90
2022-09-04T03:08:57.047Z,19.00
2022-09-04T03:11:53.740Z,18.80
2022-09-04T03:14:34.229Z,18.80
2022-09-04T03:17:28.150Z,18.70
2022-09-04T03:20:18.406Z,18.70
2022-09-04T03:23:15.592Z,18.70
2022-09-04T03:26:02.591Z,18.60
2022-09-04T03:29:10.010Z,18.60
2022-09-04T03:31:41.060Z,18.50
2022-09-04T03:34:36.851Z,18.50
2022-09-04T03:37:50.054Z,18.40
2022-09-04T03:40:45.958Z,18.40
2022-09-04T03:43:52.282Z,18.40
2022-09-04T03:47:03.799Z,18.40
2022-09-04T03:49:55.039Z,18.40
2022-09-04T03:53:31.717Z,18.50
2022-09-04T03:56:42.019Z,18.50
2022-09-04T03:59:13.595Z,18.50
2022-09-04T04:02:30.314Z,18.50
2022-09-04T04:05:22.278Z,18.50
2022-09-04T04:08:14.945Z,18.50
2022-09-04T04:10:53.375Z,18.60
2022-09-04T04:13:37.220Z,18.60
2022-09-04T04:16:31.317Z,18.60
2022-09-04T04:19:23.461Z,18.60
2022-09-04T04:22:07.871Z,18.60
2022-09-04T04:25:02.542Z,18.60
2022-09-04T04:27:59.110Z,18.60
2022-09-04T04:30:43.826Z,18.70
2022-09-04T04:33:53.817Z,18.70
2022-09-04T04:36:51.174Z,18.70
2022-09-04T04:39:49.830Z,18.70
2022-09-04T04:42:55.626Z,18.70
2022-09-04T04:46:13.129Z,18.70
2022-09-04T04:49:07.671Z,18.70
2022-09-04T04:52:08.671Z,18.80
2022-09-04T04:55:10.683Z,18.80
2022-09-04T04:57:56.690Z,18.80
2022-09-04T05:00:39.174Z,18.90
2022-09-04T05:04:02.500Z,18.90
2022-09-04T05:06:43.324Z,18.90
2022-09-04T05:09:31.671Z,18.90
2022-09-04T05:12:23.675Z,18.90
2022-09-04T05:15:19.243Z,19.00
2022-09-04T05:18:04.822Z,19.00
2022-09-04T05:21:05.062Z,19.10
2022-09-04T05:24:03.829Z,19.10
2022-09-04T05:26:47.334Z,19.20
2022-09-04T05:29:35.275Z,19.30
2022-09-04T05:32:37.129Z,19.30
2022-09-04T05:35:17.966Z,19.50
2022-09-04T05:38:09.575Z,19.60
2022-09-04T05:41:18.429Z,19.70
2022-09-04T05:44:32.483Z,19.80
2022-09-04T05:47:18.450Z,20.00
2022-09-04T05:50:21.373Z,20.20
2022-09-04T05:53:34.678Z,20.40
2022-09-04T05:56:41.980Z,20.60
2022-09-04T05:59:59.437Z,20.80
2022-09-04T06:03:07.046Z,21.10
2022-09-04T06:06:01.550Z,21.30
2022-09-04T06:08:49.447Z,21.60
2022-09-04T06:11:43.640Z,21.80
2022-09-04T06:14:59.113Z,22.00
2022-09-04T06:18:11.803Z,22.30
2022-09-04T06:21:32.883Z,22.50
2022-09-04T06:24:18.589Z,22.80
2022-09-04T06:27:07.255Z,23.00
2022-09-04T06:30:09.083Z,23.10
2022-09-04T06:33:06.175Z,23.30
2022-09-04T06:36:34.755Z,23.40
2022-09-04T06:39:19.339Z,23.60
2022-09-04T06:42:25.498Z,23.80
2022-09-04T06:45:09.779Z,24.10
2022-09-04T06:47:56.958Z,24.40
2022-09-04T06:50:53.890Z,24.70
2022-09-04T06:53:42.477Z,25.00
2022-09-04T06:56:51.202Z,25.40
2022-09-04T06:59:35.157Z,25.80
2022-09-04T07:02:25.979Z,26.30
2022-09-04T07:05:10.025Z,26.80
2022-09-04T07:07:57.665Z,27.30
2022-09-04T07:10:34.841Z,27.80
2022-09-04T07:13:38.860Z,28.30
2022-09-04T07:16:29.052Z,28.90
2022-09-04T07:19:15.200Z,29.50
2022-09-04T07:22:17.909Z,30.10
2022-09-04T07:25:18.763Z,30.60
2022-09-04T07:28:37.541Z,31.20
2022-09-04T07:31:26.820Z,31.80
2022-09-04T07:34:14.272Z,32.40
2022-09-04T07:36:57.970Z,32.80
2022-09-04T07:39:45.155Z,33.30
2022-09-04T07:42:20.760Z,33.80
2022-09-04T07:45:22.452Z,34.20
2022-09-04T07:48:23.715Z,34.60
2022-09-04T07:51:05.041Z,35.00
2022-09-04T07:54:22.741Z,35.40
2022-09-04T07:57:13.880Z,35.80
2022-09-04T07:59:56.397Z,36.20
2022-09-04T08:02:56.516Z,36.40
2022-09-04T08:05:52.378Z,36.80
2022-09-04T08:08:59.417Z,37.10
2022-09-04T08:11:38.014Z,37.40
2022-09-04T08:14:37.658Z,37.80
2022-09-04T08:17:41.436Z,38.10
2022-09-04T08:20:12.737Z,38.40
2022-09-04T08:23:11.774Z,38.70
2022-09-04T08:25:55.556Z,39.00
2022-09-04T08:28:48.373Z,39.30
2022-09-04T08:31:59.129Z,39.50
2022-09-04T08:35:07.410Z,39.70
2022-09-04T08:37:49.241Z,39.90
2022-09-04T08:41:06.937Z,40.00
2022-09-04T08:44:07.645Z,39.90
2022-09-04T08:47:20.232Z,39.80
2022-09-04T08:50:18.362Z,39.80
2022-09-04T08:53:03.706Z,39.80
2022-09-04T08:56:08.773Z,39.70
2022-09-04T08:59:24.708Z,39.60
2022-09-04T09:02:18.533Z,39.60
2022-09-04T09:05:40.534Z,39.70
2022-09-04T09:08:43.505Z,39.70
2022-09-04T09:11:59.740Z,39.90
2022-09-04T09:15:10.153Z,40.10
2022-09-04T09:17:59.952Z,40.40
2022-09-04T09:20:31.034Z,40.60
2022-09-04T09:23:28.578Z,40.80
2022-09-04T09:26:10.439Z,41.10
2022-09-04T09:28:56.842Z,41.40
2022-09-04T09:32:10.293Z,41.60
2022-09-04T09:35:08.868Z,41.90
2022-09-04T09:38:04.121Z,42.10
2022-09-04T09:41:08.742Z,42.30
2022-09-04T09:44:03.234Z,42.50
2022-09-04T09:47:03.454Z,42.60
2022-09-04T09:50:00.209Z,42.70
2022-09-04T09:52:47.507Z,42.90
2022-09-04T09:55:58.576Z,43.00
2022-09-04T09:59:22.377Z,43.10
2022-09-04T10:02:35.099Z,43.20
2022-09-04T10:05:57.159Z,43.50
2022-09-04T10:09:01.505Z,43.60
2022-09-04T10:12:33.172Z,43.60
2022-09-04T10:15:35.080Z,43.40
2022-09-04T10:18:23.081Z,42.90
2022-09-04T10:21:20.647Z,42.50
2022-09-04T10:24:21.262Z,41.90
2022-09-04T10:27:14.174Z,41.30
2022-09-04T10:30:10.925Z,40.90
2022-09-04T10:33:09.183Z,40.60
2022-09-04T10:36:12.539Z,40.40
2022-09-04T10:39:16.901Z,40.40
2022-09-04T10:42:08.638Z,40.30
2022-09-04T10:45:09.459Z,40.30
2022-09-04T10:47:55.513Z,40.30
2022-09-04T10:50:59.399Z,40.30
2022-09-04T10:53:54.693Z,40.40
2022-09-04T10:56:47.261Z,40.60
2022-09-04T11:00:06.124Z,40.80
2022-09-04T11:03:22.709Z,40.90
2022-09-04T11:06:30.981Z,41.00
2022-09-04T11:09:28.385Z,41.00
2022-09-04T11:12:23.540Z,41.00
2022-09-04T11:15:08.387Z,41.00
2022-09-04T11:18:03.580Z,41.00
2022-09-04T11:21:25.400Z,41.00
2022-09-04T11:24:03.828Z,41.00
2022-09-04T11:27:15.711Z,41.00
2022-09-04T11:30:02.373Z,40.80
2022-09-04T11:33:16.024Z,40.50
2022-09-04T11:36:05.856Z,40.20
2022-09-04T11:39:17.028Z,40.00
2022-09-04T11:42:27.613Z,39.80
2022-09-04T11:45:22.780Z,39.50
2022-09-04T11:48:23.102Z,39.30
2022-09-04T11:51:06.683Z,39.10
2022-09-04T11:54:40.203Z,38.70
2022-09-04T11:57:28.690Z,38.40
2022-09-04T12:00:13.132Z,38.00
2022-09-04T12:03:20.741Z,37.70
2022-09-04T12:06:26.614Z,37.40
2022-09-04T12:09:17.697Z,37.10
2022-09-04T12:12:11.505Z,36.70
2022-09-04T12:15:07.375Z,36.40
2022-09-04T12:18:09.188Z,36.20
2022-09-04T12:21:00.350Z,35.90
2022-09-04T12:24:07.657Z,35.70
2022-09-04T12:26:56.069Z,35.50
2022-09-04T12:30:05.349Z,35.30
2022-09-04T12:33:31.557Z,35.10
2022-09-04T12:36:36.784Z,35.00
2022-09-04T12:39:52.403Z,34.80
2022-09-04T12:43:32.712Z,34.60
2022-09-04T12:46:39.212Z,34.40
2022-09-04T12:49:32.879Z,34.30
2022-09-04T12:52:35.864Z,34.20
2022-09-04T12:55:22.955Z,34.20
2022-09-04T12:58:17.807Z,34.20
2022-09-04T13:01:15.985Z,34.20
2022-09-04T13:04:11.755Z,34.30
2022-09-04T13:07:15.926Z,34.30
2022-09-04T13:10:16.815Z,34.50
2022-09-04T13:13:07.822Z,34.50
2022-09-04T13:16:15.838Z,34.60
2022-09-04T13:19:22.842Z,34.80
2022-09-04T13:22:36.463Z,35.00
2022-09-04T13:25:19.116Z,35.10
2022-09-04T13:28:02.314Z,35.10
2022-09-04T13:30:31.986Z,35.00
2022-09-04T13:33:39.698Z,34.70
2022-09-04T13:36:49.385Z,34.50
2022-09-04T13:39:29.160Z,34.40
2022-09-04T13:42:15.048Z,34.40
2022-09-04T13:45:05.549Z,34.50
2022-09-04T13:47:58.372Z,34.30
2022-09-04T13:50:57.070Z,34.30
2022-09-04T13:53:35.661Z,34.40
2022-09-04T13:56:19.580Z,34.40
2022-09-04T13:58:51.381Z,34.50
2022-09-04T14:01:25.661Z,34.60
2022-09-04T14:04:11.379Z,34.70
2022-09-04T14:06:38.941Z,34.70
2022-09-04T14:09:06.697Z,34.80
2022-09-04T14:12:07.856Z,34.80
2022-09-04T14:15:07.645Z,34.90
2022-09-04T14:18:22.605Z,34.90
2022-09-04T14:24:10.749Z,34.60
2022-09-04T14:27:20.318Z,34.50
2022-09-04T14:30:23.565Z,34.50
2022-09-04T14:32:06.634Z,34.80
2022-09-04T14:33:36.092Z,34.40
2022-09-04T14:36:25.352Z,34.40
2022-09-04T14:39:22.738Z,34.40
2022-09-04T14:42:27.401Z,34.30
2022-09-04T14:45:48.481Z,34.30
2022-09-04T14:48:17.620Z,34.10
2022-09-04T14:50:57.628Z,34.00
2022-09-04T14:53:34.711Z,33.80
2022-09-04T14:56:07.638Z,33.60
2022-09-04T14:58:41.726Z,33.40
2022-09-04T15:01:20.201Z,33.30
2022-09-04T15:04:06.479Z,33.10
2022-09-04T15:07:07.987Z,33.00
2022-09-04T15:09:43.267Z,32.90
2022-09-04T15:12:28.404Z,32.80
2022-09-04T15:15:22.822Z,32.70
2022-09-04T15:18:02.095Z,32.50
2022-09-04T15:20:34.329Z,32.50
2022-09-04T15:23:38.889Z,32.30
2022-09-04T15:26:19.869Z,32.20
2022-09-04T15:28:54.005Z,32.10
2022-09-04T15:31:32.278Z,32.10
2022-09-04T15:34:08.417Z,32.00
2022-09-04T15:36:37.739Z,32.00
2022-09-04T15:39:29.218Z,31.90
2022-09-04T15:41:56.113Z,31.90
2022-09-04T15:44:29.762Z,31.80
2022-09-04T15:47:20.983Z,31.80
2022-09-04T15:49:58.524Z,31.80
2022-09-04T15:52:43.227Z,31.70
2022-09-04T15:55:26.879Z,31.80
2022-09-04T15:58:04.699Z,31.70
2022-09-04T16:00:38.185Z,31.80
2022-09-04T16:03:29.179Z,31.80
2022-09-04T16:06:08.725Z,31.80
2022-09-04T16:09:00.530Z,31.80
2022-09-04T16:11:42.569Z,31.80
2022-09-04T16:14:26.001Z,31.70
2022-09-04T16:17:00.974Z,31.70
2022-09-04T16:19:48.486Z,31.60
2022-09-04T16:22:32.551Z,31.60
2022-09-04T16:25:11.043Z,31.60
2022-09-04T16:27:51.711Z,31.60
2022-09-04T16:30:33.069Z,31.60
2022-09-04T16:33:01.931Z,31.50
2022-09-04T16:35:37.013Z,31.50
2022-09-04T16:38:23.534Z,31.50
2022-09-04T16:41:13.466Z,31.40
2022-09-04T16:43:40.498Z,31.30
2022-09-04T16:46:29.509Z,31.10
2022-09-04T16:49:07.230Z,30.90
2022-09-04T16:52:22.673Z,30.80
2022-09-04T16:55:15.612Z,30.70
2022-09-04T16:58:18.794Z,30.50
2022-09-04T17:01:15.794Z,30.40
2022-09-04T17:04:12.444Z,30.30
2022-09-04T17:07:02.801Z,30.20
2022-09-04T17:10:01.739Z,30.10
2022-09-04T17:12:40.535Z,30.00
2022-09-04T17:15:22.673Z,29.90
2022-09-04T17:17:51.130Z,29.80
2022-09-04T17:26:25.339Z,29.70
2022-09-04T17:28:46.080Z,29.80
2022-09-04T17:29:08.798Z,29.80
2022-09-04T17:30:29.174Z,29.70
2022-09-04T17:35:23.726Z,29.50
2022-09-04T17:40:38.845Z,29.50
2022-09-04T17:40:40.195Z,29.30
2022-09-04T17:43:22.194Z,29.20
2022-09-04T17:46:29.497Z,29.10
2022-09-04T17:48:56.722Z,29.00
2022-09-04T17:51:28.497Z,28.80
2022-09-04T17:54:02.247Z,28.90
2022-09-04T17:56:42.485Z,28.80
2022-09-04T17:59:20.112Z,28.70
2022-09-04T18:02:20.997Z,28.70
2022-09-04T18:05:42.538Z,28.60
2022-09-04T18:08:32.466Z,28.60
2022-09-04T18:11:20.628Z,28.60
2022-09-04T18:14:01.181Z,28.50
2022-09-04T18:16:42.428Z,28.40
2022-09-04T18:19:47.032Z,28.30
2022-09-04T18:23:08.959Z,28.20
2022-09-04T18:25:55.824Z,28.10
2022-09-04T18:28:34.334Z,28.00
2022-09-04T18:37:06.586Z,27.90
2022-09-04T18:37:20.792Z,27.80
2022-09-04T18:38:26.850Z,27.70
2022-09-04T18:43:31.169Z,27.50
2022-09-04T18:50:24.131Z,27.40
2022-09-04T18:50:42.920Z,27.20
2022-09-04T18:50:48.101Z,27.30
2022-09-04T18:52:20.480Z,27.10
2022-09-04T18:54:57.239Z,27.10
2022-09-04T18:57:48.177Z,26.90
2022-09-04T19:00:34.801Z,26.80
2022-09-04T19:03:26.114Z,26.70
2022-09-04T19:06:00.771Z,26.60
2022-09-04T19:08:37.577Z,26.50
2022-09-04T19:11:21.673Z,26.40
2022-09-04T19:14:09.895Z,26.30
2022-09-04T19:16:46.571Z,26.20
2022-09-04T19:19:31.733Z,26.20
2022-09-04T19:22:32.328Z,26.00
2022-09-04T19:25:07.704Z,26.00
2022-09-04T19:27:46.513Z,25.90
2022-09-04T19:30:24.016Z,25.80
2022-09-04T19:33:03.580Z,25.70
2022-09-04T19:35:46.192Z,25.60
2022-09-04T19:40:57.061Z,25.40
2022-09-04T19:46:08.898Z,25.40
2022-09-04T19:46:12.083Z,25.30
2022-09-04T19:47:46.549Z,25.30
2022-09-04T19:53:18.915Z,25.20
2022-09-04T19:53:37.806Z,25.10
2022-09-04T19:56:38.088Z,25.00
2022-09-04T19:59:30.739Z,24.90
2022-09-04T20:01:59.549Z,24.90
2022-09-04T20:04:46.979Z,24.80
2022-09-04T20:07:41.117Z,24.70
2022-09-04T20:10:22.843Z,24.50
2022-09-04T20:13:28.403Z,24.90
2022-09-04T20:16:20.117Z,24.50
2022-09-04T20:19:07.104Z,24.50
2022-09-04T20:22:04.900Z,24.40
2022-09-04T20:24:59.125Z,24.40
2022-09-04T20:28:15.391Z,24.30
2022-09-04T20:31:01.601Z,24.10
2022-09-04T20:33:35.294Z,24.10
2022-09-04T20:36:10.538Z,24.20
2022-09-04T20:38:44.841Z,24.10
2022-09-04T20:41:35.170Z,24.10
2022-09-04T20:44:24.528Z,24.10
2022-09-04T20:52:49.680Z,23.90
2022-09-04T20:52:52.240Z,24.00
2022-09-04T20:53:57.628Z,24.00
2022-09-04T20:57:43.566Z,23.90
2022-09-04T21:03:08.776Z,23.70
2022-09-04T21:03:11.326Z,23.80
2022-09-04T21:05:59.990Z,23.80
2022-09-04T21:08:52.241Z,23.70
2022-09-04T21:11:40.534Z,23.60
2022-09-04T21:14:18.550Z,23.50
2022-09-04T21:17:35.259Z,23.70
2022-09-04T21:20:17.098Z,23.50
2022-09-04T21:23:18.011Z,23.40
2022-09-04T21:26:22.713Z,23.30
2022-09-04T21:29:23.866Z,23.20
2022-09-04T21:32:43.412Z,23.20
2022-09-04T21:35:24.914Z,23.10
2022-09-04T21:38:07.476Z,23.00
2022-09-04T21:41:08.121Z,22.90
2022-09-04T21:44:13.780Z,22.90
2022-09-04T21:47:08.401Z,22.80
2022-09-04T21:49:56.652Z,22.80
2022-09-04T21:53:11.709Z,22.70
2022-09-04T21:59:38.101Z,22.70
2022-09-04T22:02:35.103Z,22.60
2022-09-04T22:03:11.976Z,22.60
2022-09-04T22:06:14.199Z,22.50
2022-09-04T22:13:28.898Z,22.50
2022-09-04T22:13:41.543Z,22.40
2022-09-04T22:15:02.570Z,22.40
2022-09-04T22:18:00.312Z,22.40
2022-09-04T22:21:15.144Z,22.30
2022-09-04T22:24:10.571Z,22.30
2022-09-04T22:27:04.290Z,22.30
2022-09-04T22:29:59.533Z,22.20
2022-09-04T22:33:14.514Z,22.20
2022-09-04T22:36:29.262Z,22.20
2022-09-04T22:39:11.274Z,22.20
2022-09-04T22:41:52.718Z,22.20
2022-09-04T22:44:56.421Z,22.10
2022-09-04T22:48:17.189Z,22.10
2022-09-04T22:51:10.458Z,22.10
2022-09-04T22:54:36.944Z,22.00
2022-09-04T22:57:27.764Z,22.00
2022-09-04T23:00:12.024Z,22.00
2022-09-04T23:03:19.842Z,21.90
2022-09-04T23:06:18.854Z,21.90
2022-09-04T23:14:00.284Z,21.90
2022-09-04T23:14:00.284Z,21.80
2022-09-04T23:16:46.499Z,21.80
2022-09-04T23:24:50.461Z,21.80
2022-09-04T23:26:46.819Z,21.70
2022-09-04T23:27:01.049Z,21.70
2022-09-04T23:29:59.370Z,21.70
2022-09-04T23:32:32.144Z,21.60
2022-09-04T23:35:15.772Z,21.60
2022-09-04T23:38:26.376Z,21.60
2022-09-04T23:41:14.482Z,21.60
2022-09-04T23:44:25.658Z,21.70
2022-09-04T23:47:49.563Z,21.50
2022-09-04T23:50:48.808Z,21.60
2022-09-04T23:53:52.777Z,21.40
2022-09-04T23:56:46.834Z,21.40
2022-09-04T23:59:39.029Z,21.40
